Hocking — AEPB — position and weather

sailwx.info

Track history (hours):
 
Tides and Currents Weather Stations Pressure Air Temp Water Temp Dewpoint Dewpoint Depression Visibility Wind Speed Wind Dir Waves Ship Positions

Hocking

Last reported at 2017-Oct-18 18:29 UTC. Time now 2017-Oct-20 03:26 UTC.
Position N 40°40' W 074°03'.

Length 21 m; draft 1.8 m.

Type: Other ship. MMSI: 366999414.

Date/timePositionNaut miles runAvg speedWind from/ knotsBaromVisibWave heightAir tempDewpointWater temp
2017-Oct-18 18:29N 40°40' W 074°03'1 2.1
2017-Oct-18 18:00N 40°40' W 074°04'1 1.4
2017-Oct-18 17:30N 40°40' W 074°05'1 1.8
2017-Oct-18 17:00N 40°41' W 074°04'1 2.2
2017-Oct-18 16:30N 40°40' W 074°03'1 0.6
2017-Oct-18 15:12N 40°40' W 074°02'2 9.8
2017-Oct-18 15:00N 40°41' W 074°04'1 0.5
2017-Oct-18 14:00N 40°41' W 074°04'1 2.6
2017-Oct-18 13:30N 40°41' W 074°03'3 5.0
2017-Oct-18 13:00N 40°38' W 074°04'2 4.2
2017-Oct-18 12:30N 40°40' W 074°05'1 0.0
2017-Oct-17 18:27N 40°41' W 074°04'1 2.0
2017-Oct-17 18:01N 40°40' W 074°05'2 3.8
2017-Oct-17 17:31N 40°39' W 074°03'2 0.1
2017-Oct-16 18:41N 40°41' W 074°04'2 8.9
2017-Oct-16 18:30N 40°39' W 074°05'3 6.5
2017-Oct-16 18:00N 40°39' W 074°09'2 3.6
2017-Oct-16 17:30N 40°39' W 074°07'4 7.8
2017-Oct-16 17:01N 40°40' W 074°02'  
2017-Oct-13 17:55N 40°42' W 074°02'2 4.2
2017-Oct-13 17:30N 40°44' W 074°02'0 0.0
2017-Oct-13 17:00N 40°44' W 074°02'0 0.0
2017-Oct-13 16:30N 40°44' W 074°02'0 0.0
2017-Oct-13 15:59N 40°44' W 074°02'3 5.4
2017-Oct-13 15:30N 40°43' W 073°59'510.2
2017-Oct-13 14:59N 40°47' W 073°55'6 3.5
2017-Oct-13 13:17N 40°48' W 073°48'2 8.6
2017-Oct-13 13:00N 40°48' W 073°51'4 8.4
2017-Oct-13 12:30N 40°47' W 073°56'4 7.5
2017-Oct-13 12:00N 40°43' W 073°58'4 7.2
2017-Oct-13 11:30N 40°41' W 074°02'2 0.1
2017-Oct-12 18:50N 40°41' W 074°04'1 2.8
2017-Oct-12 18:30N 40°40' W 074°04'2 4.9
2017-Oct-12 17:59N 40°38' W 074°04'3 5.8
2017-Oct-12 17:30N 40°35' W 074°02'1 2.1
2017-Oct-12 17:00N 40°36' W 074°02'5 0.2
2017-Oct-11 18:33N 40°41' W 074°04'0 7.2
2017-Oct-11 18:30N 40°41' W 074°04'2 4.3
2017-Oct-11 18:00N 40°39' W 074°02'2 4.1
2017-Oct-11 17:30N 40°41' W 074°01'2 0.1
2017-Oct-10 18:18N 40°41' W 074°03'2 5.3
2017-Oct-10 18:00N 40°39' W 074°04'3 5.8
2017-Oct-10 17:30N 40°42' W 074°02'4 7.3
2017-Oct-10 17:00N 40°45' W 074°01'3 4.9
2017-Oct-10 16:30N 40°47' W 073°60'2 3.3
2017-Oct-10 16:01N 40°46' W 074°01'510.6
2017-Oct-10 15:31N 40°41' W 074°02'5 9.5
2017-Oct-10 15:00N 40°39' W 074°08'4 1.7
2017-Oct-10 12:44N 40°36' W 074°12'2 9.2
2017-Oct-10 12:30N 40°38' W 074°12'510.0
2017-Oct-10 12:00N 40°39' W 074°05'  
Track history (hours):
 
Tides and Currents Weather Stations Pressure Air Temp Water Temp Dewpoint Dewpoint Depression Visibility Wind Speed Wind Dir Waves Ship Positions

Hocking

Last reported at 2017-Oct-18 18:29 UTC. Time now 2017-Oct-20 03:26 UTC.
Position N 40°40' W 074°03'.

Length 21 m; draft 1.8 m.

Type: Other ship. MMSI: 366999414.

Date/timePositionNaut miles runAvg speedWind from/ knotsBaromVisibWave heightAir tempDewpointWater temp
2017-Oct-18 18:29N 40°40' W 074°03'1 2.1
2017-Oct-18 18:00N 40°40' W 074°04'1 1.4
2017-Oct-18 17:30N 40°40' W 074°05'1 1.8
2017-Oct-18 17:00N 40°41' W 074°04'1 2.2
2017-Oct-18 16:30N 40°40' W 074°03'1 0.6
2017-Oct-18 15:12N 40°40' W 074°02'2 9.8
2017-Oct-18 15:00N 40°41' W 074°04'1 0.5
2017-Oct-18 14:00N 40°41' W 074°04'1 2.6
2017-Oct-18 13:30N 40°41' W 074°03'3 5.0
2017-Oct-18 13:00N 40°38' W 074°04'2 4.2
2017-Oct-18 12:30N 40°40' W 074°05'1 0.0
2017-Oct-17 18:27N 40°41' W 074°04'1 2.0
2017-Oct-17 18:01N 40°40' W 074°05'2 3.8
2017-Oct-17 17:31N 40°39' W 074°03'2 0.1
2017-Oct-16 18:41N 40°41' W 074°04'2 8.9
2017-Oct-16 18:30N 40°39' W 074°05'3 6.5
2017-Oct-16 18:00N 40°39' W 074°09'2 3.6
2017-Oct-16 17:30N 40°39' W 074°07'4 7.8
2017-Oct-16 17:01N 40°40' W 074°02'  
2017-Oct-13 17:55N 40°42' W 074°02'2 4.2
2017-Oct-13 17:30N 40°44' W 074°02'0 0.0
2017-Oct-13 17:00N 40°44' W 074°02'0 0.0
2017-Oct-13 16:30N 40°44' W 074°02'0 0.0
2017-Oct-13 15:59N 40°44' W 074°02'3 5.4
2017-Oct-13 15:30N 40°43' W 073°59'510.2
2017-Oct-13 14:59N 40°47' W 073°55'6 3.5
2017-Oct-13 13:17N 40°48' W 073°48'2 8.6
2017-Oct-13 13:00N 40°48' W 073°51'4 8.4
2017-Oct-13 12:30N 40°47' W 073°56'4 7.5
2017-Oct-13 12:00N 40°43' W 073°58'4 7.2
2017-Oct-13 11:30N 40°41' W 074°02'2 0.1
2017-Oct-12 18:50N 40°41' W 074°04'1 2.8
2017-Oct-12 18:30N 40°40' W 074°04'2 4.9
2017-Oct-12 17:59N 40°38' W 074°04'3 5.8
2017-Oct-12 17:30N 40°35' W 074°02'1 2.1
2017-Oct-12 17:00N 40°36' W 074°02'5 0.2
2017-Oct-11 18:33N 40°41' W 074°04'0 7.2
2017-Oct-11 18:30N 40°41' W 074°04'2 4.3
2017-Oct-11 18:00N 40°39' W 074°02'2 4.1
2017-Oct-11 17:30N 40°41' W 074°01'2 0.1
2017-Oct-10 18:18N 40°41' W 074°03'2 5.3
2017-Oct-10 18:00N 40°39' W 074°04'3 5.8
2017-Oct-10 17:30N 40°42' W 074°02'4 7.3
2017-Oct-10 17:00N 40°45' W 074°01'3 4.9
2017-Oct-10 16:30N 40°47' W 073°60'2 3.3
2017-Oct-10 16:01N 40°46' W 074°01'510.6
2017-Oct-10 15:31N 40°41' W 074°02'5 9.5
2017-Oct-10 15:00N 40°39' W 074°08'4 1.7
2017-Oct-10 12:44N 40°36' W 074°12'2 9.2
2017-Oct-10 12:30N 40°38' W 074°12'510.0
2017-Oct-10 12:00N 40°39' W 074°05'  

Dump ship's entire track history